Time;durP1;ratioP1;P1;durP2;ratioP2;P2;SDS_P1;SDS_P2;PMS_P1;PMS_P2;Temp;Humidity;BMP_temperature;BMP_pressure;BME280_temperature;BME280_humidity;BME280_pressure;Samples;Min_cycle;Max_cycle;Signal;HPM_P1;HPM_P2
2022/09/12 00:00:49;;;;;;;17.03;10.27;;;16.20;85.00;;;;;;5000668;28;20546;-49
2022/09/12 00:03:16;;;;;;;12.30;9.60;;;16.20;85.00;;;;;;5002797;28;20460;-49
2022/09/12 00:05:45;;;;;;;24.30;10.17;;;16.20;85.10;;;;;;4980815;28;21281;-49
2022/09/12 00:08:13;;;;;;;14.40;9.17;;;16.20;84.80;;;;;;4981266;28;21042;-49
2022/09/12 00:10:41;;;;;;;16.83;10.80;;;16.20;84.40;;;;;;4999360;28;20555;-49
2022/09/12 00:13:09;;;;;;;15.87;9.87;;;16.20;84.30;;;;;;5001277;28;20504;-49
2022/09/12 00:15:40;;;;;;;13.33;9.63;;;16.20;84.40;;;;;;5001715;28;20973;-49
2022/09/12 00:18:14;;;;;;;14.20;9.20;;;16.20;84.50;;;;;;4999409;28;20492;-49
2022/09/12 00:20:45;;;;;;;14.90;10.33;;;16.10;84.80;;;;;;5001397;28;20550;-49
2022/09/12 00:23:12;;;;;;;17.63;10.50;;;16.10;84.90;;;;;;5002052;28;20556;-49
2022/09/12 00:25:43;;;;;;;16.33;10.57;;;16.10;84.80;;;;;;4983819;28;20468;-49
2022/09/12 00:28:12;;;;;;;13.30;9.27;;;16.10;84.90;;;;;;5001849;28;20464;-49
2022/09/12 00:30:48;;;;;;;13.00;10.93;;;16.00;85.00;;;;;;4999606;28;20498;-49
2022/09/12 00:33:16;;;;;;;13.57;9.30;;;16.00;85.00;;;;;;4997144;28;20543;-49
2022/09/12 00:35:51;;;;;;;13.63;9.60;;;16.10;84.50;;;;;;5001230;28;20559;-49
2022/09/12 00:38:19;;;;;;;15.70;10.37;;;16.10;84.40;;;;;;4983797;28;21364;-49
2022/09/12 00:40:47;;;;;;;18.03;9.73;;;16.10;84.30;;;;;;5002752;28;20570;-49
2022/09/12 00:43:40;;;;;;;14.70;10.37;;;16.10;84.30;;;;;;5001023;28;20555;-49
2022/09/12 00:46:27;;;;;;;15.90;10.20;;;16.00;84.30;;;;;;4999837;28;20604;-49
2022/09/12 00:49:22;;;;;;;12.87;9.80;;;16.10;84.30;;;;;;4982920;28;20456;-49
2022/09/12 00:52:10;;;;;;;16.47;10.57;;;15.90;84.90;;;;;;4998616;28;21016;-49
2022/09/12 00:54:40;;;;;;;13.00;9.80;;;15.80;85.30;;;;;;5002855;28;20596;-49
2022/09/12 00:57:10;;;;;;;15.30;10.33;;;15.80;85.50;;;;;;5001750;28;20568;-49
2022/09/12 01:00:14;;;;;;;15.33;10.37;;;15.80;85.40;;;;;;5003310;28;20476;-49
2022/09/12 01:02:45;;;;;;;14.57;10.50;;;15.80;85.40;;;;;;4993933;28;20866;-49
2022/09/12 01:05:12;;;;;;;16.30;11.10;;;15.70;85.30;;;;;;4997153;28;20504;-49
2022/09/12 01:07:40;;;;;;;15.90;11.07;;;15.70;85.40;;;;;;4999387;28;20567;-49
2022/09/12 01:10:08;;;;;;;15.37;10.20;;;15.70;85.60;;;;;;4998673;28;20877;-49
2022/09/12 01:12:39;;;;;;;17.17;11.83;;;15.70;85.30;;;;;;5003867;28;20527;-49
2022/09/12 01:15:06;;;;;;;15.30;11.77;;;15.80;85.00;;;;;;4997202;28;20499;-49
2022/09/12 01:18:15;;;;;;;12.10;10.20;;;15.60;85.50;;;;;;4999374;28;20492;-49
2022/09/12 01:20:59;;;;;;;14.27;10.20;;;15.60;85.50;;;;;;5000947;28;20464;-49
2022/09/12 01:23:54;;;;;;;16.27;10.80;;;15.60;85.60;;;;;;4997395;28;20456;-49
2022/09/12 01:26:46;;;;;;;20.93;9.87;;;15.60;85.50;;;;;;4996267;28;20821;-49
2022/09/12 01:29:48;;;;;;;12.60;9.03;;;15.50;85.70;;;;;;4998316;28;20923;-49
2022/09/12 01:32:39;;;;;;;13.97;10.17;;;15.60;85.50;;;;;;4933155;28;20629;-48
2022/09/12 01:35:25;;;;;;;16.53;10.07;;;15.60;85.30;;;;;;5000878;28;20527;-49
2022/09/12 01:38:25;;;;;;;17.67;10.27;;;15.60;85.00;;;;;;4999740;28;20875;-49
2022/09/12 01:41:20;;;;;;;15.43;9.90;;;15.50;85.30;;;;;;4997675;28;20555;-49
2022/09/12 01:43:57;;;;;;;12.13;8.40;;;15.60;85.10;;;;;;4973344;28;20571;-49
2022/09/12 01:46:34;;;;;;;14.60;9.70;;;15.60;85.20;;;;;;5000329;28;20531;-49
2022/09/12 01:49:05;;;;;;;17.97;11.30;;;15.50;85.30;;;;;;4999785;28;20894;-49
2022/09/12 01:51:38;;;;;;;15.03;10.10;;;15.40;85.90;;;;;;4997949;28;21028;-49
2022/09/12 01:54:24;;;;;;;14.57;9.77;;;15.40;85.80;;;;;;4982489;28;20883;-49
2022/09/12 01:56:56;;;;;;;13.87;9.47;;;15.40;85.60;;;;;;4982364;28;20480;-48
2022/09/12 01:59:32;;;;;;;14.70;10.73;;;15.40;85.50;;;;;;4999231;28;20887;-49
2022/09/12 02:02:08;;;;;;;13.00;9.23;;;15.50;85.40;;;;;;5000022;28;20531;-49
2022/09/12 02:04:41;;;;;;;12.20;9.20;;;15.50;85.20;;;;;;5001147;28;20467;-49
2022/09/12 02:07:19;;;;;;;15.73;9.60;;;15.40;85.50;;;;;;5000455;28;20460;-49
2022/09/12 02:10:14;;;;;;;13.47;9.80;;;15.40;85.70;;;;;;5001400;28;20691;-48
2022/09/12 02:13:06;;;;;;;13.27;8.93;;;15.40;85.30;;;;;;4982741;28;20889;-48
2022/09/12 02:15:38;;;;;;;15.47;9.40;;;15.40;85.10;;;;;;5004569;28;21002;-48
2022/09/12 02:18:05;;;;;;;14.97;9.60;;;15.40;85.30;;;;;;4987149;28;21065;-49
2022/09/12 02:20:38;;;;;;;11.63;8.80;;;15.40;85.40;;;;;;5006410;28;20514;-49
2022/09/12 02:23:25;;;;;;;13.67;8.63;;;15.40;85.20;;;;;;5004890;28;20464;-48
2022/09/12 02:25:59;;;;;;;16.70;10.60;;;15.40;84.80;;;;;;5007081;28;20499;-48
2022/09/12 02:28:30;;;;;;;13.33;10.20;;;15.10;85.80;;;;;;4987921;28;20911;-48
2022/09/12 02:31:08;;;;;;;13.80;9.80;;;15.00;86.60;;;;;;5005473;28;20471;-48
2022/09/12 02:33:50;;;;;;;16.53;10.87;;;15.10;86.40;;;;;;4986615;28;20923;-49
2022/09/12 02:36:42;;;;;;;15.80;10.70;;;15.20;85.70;;;;;;4980479;28;20460;-47
2022/09/12 02:39:08;;;;;;;14.60;9.30;;;15.20;85.50;;;;;;5018996;28;20469;-47
2022/09/12 02:41:35;;;;;;;15.30;11.20;;;15.30;85.30;;;;;;5020525;28;20488;-47
2022/09/12 02:44:03;;;;;;;14.10;10.40;;;15.30;85.20;;;;;;5021246;28;20824;-47
2022/09/12 02:46:44;;;;;;;14.00;9.47;;;15.30;85.10;;;;;;5024339;28;20464;-47
2022/09/12 02:49:11;;;;;;;13.80;9.93;;;15.20;85.40;;;;;;5019009;28;20456;-47
2022/09/12 02:51:38;;;;;;;16.10;9.87;;;15.20;85.60;;;;;;5018899;28;20461;-47
2022/09/12 02:54:06;;;;;;;12.80;10.00;;;15.20;85.80;;;;;;5002471;28;20471;-47
2022/09/12 02:56:33;;;;;;;15.27;9.63;;;15.20;85.50;;;;;;5021953;28;20512;-47
2022/09/12 02:59:07;;;;;;;14.70;9.80;;;15.20;85.50;;;;;;5004736;28;20894;-48
2022/09/12 03:01:54;;;;;;;16.63;10.67;;;15.10;85.90;;;;;;5006637;28;20525;-49
2022/09/12 03:04:37;;;;;;;16.03;9.10;;;15.10;85.70;;;;;;4984340;28;20467;-49
2022/09/12 03:07:13;;;;;;;13.20;8.70;;;15.10;85.60;;;;;;4988626;28;20456;-48
2022/09/12 03:09:50;;;;;;;14.33;9.27;;;15.20;85.10;;;;;;4986991;28;20515;-49
2022/09/12 03:12:35;;;;;;;12.87;9.37;;;15.10;85.30;;;;;;4985630;28;20468;-48
2022/09/12 03:15:43;;;;;;;13.10;10.03;;;15.10;85.30;;;;;;5001563;28;20512;-49
2022/09/12 03:18:18;;;;;;;15.00;9.77;;;15.10;85.20;;;;;;5002408;28;20530;-48
2022/09/12 03:20:58;;;;;;;12.73;9.57;;;15.10;85.20;;;;;;5003185;28;21035;-49
2022/09/12 03:24:16;;;;;;;11.60;9.23;;;15.10;85.00;;;;;;5005293;28;20490;-48
2022/09/12 03:26:53;;;;;;;11.63;8.90;;;15.10;84.90;;;;;;4969104;28;20500;-49
2022/09/12 03:29:22;;;;;;;12.83;9.10;;;15.10;84.80;;;;;;5001158;28;20985;-49
2022/09/12 03:31:51;;;;;;;17.47;9.60;;;15.10;84.90;;;;;;5004384;28;20501;-48
2022/09/12 03:34:18;;;;;;;15.10;10.30;;;15.10;84.90;;;;;;4997410;28;20461;-48
2022/09/12 03:36:46;;;;;;;12.97;9.57;;;15.10;84.80;;;;;;4999195;28;20515;-48
2022/09/12 03:39:13;;;;;;;16.10;9.27;;;15.10;84.70;;;;;;4984345;28;20482;-49
2022/09/12 03:41:39;;;;;;;14.27;9.27;;;15.10;84.80;;;;;;4997643;28;20519;-48
2022/09/12 03:44:06;;;;;;;14.20;8.90;;;15.10;84.80;;;;;;5003617;28;20849;-49
2022/09/12 03:46:33;;;;;;;14.17;9.40;;;15.00;84.80;;;;;;4998456;28;20456;-48
2022/09/12 03:49:00;;;;;;;13.23;10.13;;;15.00;84.80;;;;;;5002015;28;20482;-48
2022/09/12 03:51:27;;;;;;;16.77;9.60;;;14.90;85.20;;;;;;4998160;28;20489;-48
2022/09/12 03:53:53;;;;;;;10.80;9.63;;;14.80;85.50;;;;;;4982806;28;20455;-48
2022/09/12 03:56:20;;;;;;;13.60;9.83;;;14.80;85.50;;;;;;5000730;28;20460;-48
2022/09/12 03:58:47;;;;;;;14.63;9.73;;;14.80;85.50;;;;;;4997983;28;20484;-48
2022/09/12 04:01:16;;;;;;;15.13;9.57;;;14.70;85.70;;;;;;4999824;28;20829;-48
2022/09/12 04:03:45;;;;;;;15.23;10.70;;;14.70;85.70;;;;;;5003002;28;20455;-48
2022/09/12 04:06:15;;;;;;;14.50;10.30;;;14.80;85.50;;;;;;4999139;28;20465;-49
2022/09/12 04:08:42;;;;;;;12.53;9.83;;;14.80;85.20;;;;;;4983783;28;20921;-48
2022/09/12 04:11:12;;;;;;;15.33;10.20;;;14.80;85.30;;;;;;4998206;28;20542;-49
2022/09/12 04:13:41;;;;;;;14.37;10.30;;;14.70;85.70;;;;;;4998866;28;21130;-48
2022/09/12 04:16:08;;;;;;;13.00;9.70;;;14.80;85.30;;;;;;5003822;28;20496;-49
2022/09/12 04:18:35;;;;;;;17.53;10.33;;;14.80;85.00;;;;;;4981002;28;20468;-48
2022/09/12 04:21:08;;;;;;;14.63;9.80;;;14.80;84.90;;;;;;4995423;28;20499;-48
2022/09/12 04:23:35;;;;;;;13.40;10.00;;;14.70;85.20;;;;;;4997650;28;20833;-49
2022/09/12 04:26:05;;;;;;;16.87;10.43;;;14.80;84.90;;;;;;4994118;28;20966;-49
2022/09/12 04:28:33;;;;;;;12.93;9.80;;;14.80;84.70;;;;;;4999111;28;20524;-49
2022/09/12 04:31:24;;;;;;;18.57;11.27;;;14.60;85.10;;;;;;4999496;28;20464;-48
2022/09/12 04:33:58;;;;;;;11.83;8.70;;;14.60;85.60;;;;;;4980003;28;21029;-48
2022/09/12 04:36:27;;;;;;;12.50;9.33;;;14.60;85.00;;;;;;5000295;28;20507;-48
2022/09/12 04:38:54;;;;;;;15.70;9.77;;;14.50;84.90;;;;;;4992951;28;20555;-49
2022/09/12 04:41:22;;;;;;;14.13;9.00;;;14.40;85.80;;;;;;4980937;28;20457;-48
2022/09/12 04:44:00;;;;;;;12.57;9.10;;;14.40;85.10;;;;;;4999293;28;20727;-48
2022/09/12 04:46:29;;;;;;;13.80;10.90;;;14.50;84.80;;;;;;4997600;28;20585;-48
2022/09/12 04:48:55;;;;;;;14.70;9.40;;;14.50;84.80;;;;;;4982900;28;20965;-49
2022/09/12 04:51:29;;;;;;;14.43;9.67;;;14.40;85.40;;;;;;4998724;28;21049;-49
2022/09/12 04:54:01;;;;;;;18.43;10.90;;;14.40;85.00;;;;;;5002204;28;20464;-48
2022/09/12 04:56:28;;;;;;;16.60;10.10;;;14.30;85.70;;;;;;4998836;28;20487;-48
2022/09/12 04:59:00;;;;;;;12.87;9.80;;;14.40;85.30;;;;;;5002081;28;20456;-48
2022/09/12 05:01:28;;;;;;;12.70;10.03;;;14.40;85.30;;;;;;5003700;28;20985;-48
2022/09/12 05:03:56;;;;;;;15.80;10.70;;;14.40;85.30;;;;;;5001696;28;20551;-48
2022/09/12 05:06:29;;;;;;;16.73;10.13;;;14.30;86.00;;;;;;5001422;28;20997;-48
2022/09/12 05:08:57;;;;;;;16.50;10.50;;;14.40;85.80;;;;;;5001082;28;20524;-48
2022/09/12 05:11:30;;;;;;;15.77;11.03;;;14.40;85.70;;;;;;4983130;28;20461;-48
2022/09/12 05:14:17;;;;;;;15.20;10.80;;;14.40;85.70;;;;;;5001063;28;20464;-48
2022/09/12 05:16:44;;;;;;;21.40;12.67;;;14.40;85.80;;;;;;5000630;28;20464;-48
2022/09/12 05:19:15;;;;;;;14.27;10.73;;;14.50;85.80;;;;;;4997617;28;20461;-48
2022/09/12 05:21:42;;;;;;;16.13;10.70;;;14.50;85.90;;;;;;5001630;28;20525;-48
2022/09/12 05:24:10;;;;;;;15.10;10.37;;;14.50;85.80;;;;;;4987186;28;20488;-48
2022/09/12 05:26:36;;;;;;;17.70;12.60;;;14.40;86.00;;;;;;4997509;28;21021;-48
2022/09/12 05:29:04;;;;;;;19.00;13.10;;;14.50;86.10;;;;;;5002216;28;21019;-49
2022/09/12 05:31:31;;;;;;;16.07;11.57;;;14.40;86.70;;;;;;4983234;28;20519;-48
2022/09/12 05:33:58;;;;;;;17.97;12.20;;;14.40;86.90;;;;;;4999321;28;20468;-48
2022/09/12 05:36:29;;;;;;;19.07;12.80;;;14.50;86.70;;;;;;4998468;28;20476;-49
2022/09/12 05:38:58;;;;;;;20.33;13.00;;;14.50;86.70;;;;;;5001460;28;20456;-48
2022/09/12 05:41:29;;;;;;;21.20;12.80;;;14.50;86.70;;;;;;4984176;28;20551;-48
2022/09/12 05:43:59;;;;;;;19.47;13.00;;;14.50;86.90;;;;;;5002200;28;21009;-49
2022/09/12 05:46:34;;;;;;;20.77;12.27;;;14.50;87.10;;;;;;4987909;28;20448;-48
2022/09/12 05:49:10;;;;;;;18.13;13.23;;;14.50;87.30;;;;;;4984028;28;20474;-48
2022/09/12 05:51:39;;;;;;;21.00;13.67;;;14.60;87.30;;;;;;4987524;28;20472;-49
2022/09/12 05:54:08;;;;;;;22.03;13.50;;;14.70;87.30;;;;;;5005025;28;20514;-49
2022/09/12 05:56:41;;;;;;;19.50;13.40;;;14.60;87.70;;;;;;4988515;28;20494;-49
2022/09/12 05:59:19;;;;;;;24.60;13.60;;;14.60;88.00;;;;;;4980203;28;20510;-48
2022/09/12 06:01:55;;;;;;;21.33;13.30;;;14.70;88.30;;;;;;5007544;28;20950;-47
2022/09/12 06:04:25;;;;;;;18.83;13.00;;;14.70;88.30;;;;;;5005741;28;20984;-47
2022/09/12 06:06:51;;;;;;;21.47;12.60;;;14.80;88.20;;;;;;5006793;28;20531;-47
2022/09/12 06:09:18;;;;;;;18.87;13.60;;;14.90;88.30;;;;;;4985658;28;20974;-46
2022/09/12 06:11:45;;;;;;;20.07;13.97;;;14.90;88.40;;;;;;4987800;28;20937;-47
2022/09/12 06:14:13;;;;;;;22.13;14.93;;;15.00;88.50;;;;;;4998908;28;20536;-46
2022/09/12 06:16:40;;;;;;;24.13;14.40;;;15.00;88.40;;;;;;5000926;28;20471;-47
2022/09/12 06:19:13;;;;;;;20.17;14.37;;;15.00;88.50;;;;;;5002602;28;20465;-47
2022/09/12 06:21:40;;;;;;;20.50;13.63;;;15.10;88.60;;;;;;4989114;28;20837;-47
2022/09/12 06:24:07;;;;;;;23.70;13.33;;;15.10;88.70;;;;;;4996737;28;20498;-47
2022/09/12 06:26:34;;;;;;;20.07;14.30;;;15.20;88.80;;;;;;5002981;28;20596;-47
2022/09/12 06:29:02;;;;;;;23.53;14.03;;;15.10;89.30;;;;;;4997588;28;20560;-47
2022/09/12 06:31:34;;;;;;;22.90;13.47;;;15.10;89.80;;;;;;4991115;28;20547;-47
2022/09/12 06:34:03;;;;;;;23.63;14.67;;;15.10;89.80;;;;;;4989346;28;20836;-47
2022/09/12 06:36:33;;;;;;;23.07;13.27;;;15.20;89.80;;;;;;5000174;28;20933;-47
2022/09/12 06:39:03;;;;;;;20.67;13.10;;;15.30;89.80;;;;;;5002043;28;20497;-47
2022/09/12 06:41:30;;;;;;;19.77;14.50;;;15.40;89.80;;;;;;5005004;28;20468;-47
2022/09/12 06:43:58;;;;;;;22.33;14.33;;;15.40;89.80;;;;;;4993251;28;20566;-47
2022/09/12 06:46:26;;;;;;;20.00;13.63;;;15.50;89.80;;;;;;5001599;28;20461;-47
2022/09/12 06:48:55;;;;;;;18.23;13.87;;;15.60;89.80;;;;;;4996906;28;20526;-47
2022/09/12 06:51:22;;;;;;;17.20;12.70;;;15.70;89.60;;;;;;4999885;28;20448;-47
2022/09/12 06:53:51;;;;;;;22.27;13.27;;;15.80;89.40;;;;;;4982347;28;20464;-47
2022/09/12 06:56:20;;;;;;;18.80;13.47;;;15.70;88.50;;;;;;5002643;28;20846;-47
2022/09/12 06:58:48;;;;;;;21.27;13.50;;;15.70;88.20;;;;;;4985690;28;20825;-47
2022/09/12 07:01:23;;;;;;;18.00;12.70;;;15.70;88.20;;;;;;5006054;28;20527;-47
2022/09/12 07:03:53;;;;;;;15.50;12.07;;;15.80;87.90;;;;;;4978827;28;21080;-47
2022/09/12 07:06:28;;;;;;;14.77;11.70;;;15.90;88.10;;;;;;5000388;28;20464;-47
2022/09/12 07:08:57;;;;;;;21.93;12.00;;;16.00;87.60;;;;;;5002232;28;20476;-47
2022/09/12 07:11:27;;;;;;;19.97;12.20;;;15.90;87.20;;;;;;5003429;28;20827;-47
2022/09/12 07:13:55;;;;;;;15.17;11.10;;;16.00;87.20;;;;;;5001367;28;20973;-47
2022/09/12 07:16:22;;;;;;;15.50;11.37;;;16.00;87.00;;;;;;5002290;28;20547;-47
2022/09/12 07:18:51;;;;;;;13.63;10.67;;;16.10;87.10;;;;;;5006543;28;20954;-47
2022/09/12 07:21:18;;;;;;;19.00;12.33;;;16.20;86.80;;;;;;5003790;28;20527;-47
2022/09/12 07:23:46;;;;;;;15.90;11.63;;;16.20;86.70;;;;;;5001391;28;20492;-47
2022/09/12 07:26:14;;;;;;;17.07;12.90;;;16.40;86.60;;;;;;4983938;28;20897;-47
2022/09/12 07:28:42;;;;;;;16.67;11.47;;;16.40;86.10;;;;;;5000371;28;20500;-47
2022/09/12 07:31:15;;;;;;;12.53;10.70;;;16.50;85.60;;;;;;5002846;28;20495;-47
2022/09/12 07:33:42;;;;;;;14.13;11.83;;;16.60;85.50;;;;;;5001656;28;20460;-47
2022/09/12 07:36:17;;;;;;;18.63;12.60;;;16.50;85.30;;;;;;4987132;28;20523;-47
2022/09/12 07:38:44;;;;;;;14.70;11.37;;;16.50;85.60;;;;;;5001749;28;20891;-47
2022/09/12 07:41:19;;;;;;;14.60;11.37;;;16.70;85.30;;;;;;4993558;28;20464;-47
2022/09/12 07:43:49;;;;;;;15.73;11.63;;;16.90;84.90;;;;;;5001947;28;20577;-47
2022/09/12 07:46:16;;;;;;;16.73;11.40;;;17.00;84.90;;;;;;4999902;28;20464;-47
2022/09/12 07:48:44;;;;;;;17.43;12.63;;;17.10;84.50;;;;;;5000692;28;20476;-47
2022/09/12 07:51:11;;;;;;;17.13;11.57;;;17.20;84.00;;;;;;5004292;28;20990;-47
2022/09/12 07:53:40;;;;;;;15.40;12.30;;;17.20;83.00;;;;;;5001142;28;20826;-47
2022/09/12 07:56:09;;;;;;;15.80;10.73;;;17.20;83.20;;;;;;5001549;28;20471;-47
2022/09/12 07:58:38;;;;;;;19.23;12.00;;;17.30;83.00;;;;;;4998826;28;20480;-47
2022/09/12 08:01:11;;;;;;;15.70;12.40;;;17.40;82.90;;;;;;5001735;28;20924;-47
2022/09/12 08:03:39;;;;;;;18.60;12.30;;;17.40;81.80;;;;;;4998569;28;21001;-47
2022/09/12 08:06:27;;;;;;;16.37;10.90;;;17.50;82.20;;;;;;4981151;28;20511;-47
2022/09/12 08:08:55;;;;;;;14.17;10.67;;;17.50;82.00;;;;;;4993081;28;22779;-47
2022/09/12 08:11:24;;;;;;;15.27;11.77;;;17.70;81.90;;;;;;4982794;28;20488;-47
2022/09/12 08:13:52;;;;;;;16.73;11.07;;;17.60;81.20;;;;;;4997954;28;20493;-47
2022/09/12 08:16:27;;;;;;;11.80;10.33;;;17.70;81.30;;;;;;5003800;28;20467;-47
2022/09/12 08:18:54;;;;;;;15.57;10.53;;;17.90;80.90;;;;;;5001255;28;20978;-47
2022/09/12 08:21:26;;;;;;;17.50;12.97;;;18.00;80.70;;;;;;5000616;28;20527;-47
2022/09/12 08:23:59;;;;;;;14.47;11.90;;;18.00;79.80;;;;;;4999739;28;20524;-47
2022/09/12 08:26:26;;;;;;;14.13;10.50;;;18.10;80.00;;;;;;4983683;28;20894;-47
2022/09/12 08:28:53;;;;;;;16.23;10.80;;;18.20;79.50;;;;;;5002082;28;20461;-47
2022/09/12 08:31:22;;;;;;;17.57;11.20;;;18.30;79.30;;;;;;4996702;28;20495;-47
2022/09/12 08:33:49;;;;;;;12.40;9.83;;;18.40;79.30;;;;;;4990607;28;20889;-47
2022/09/12 08:36:22;;;;;;;15.20;10.03;;;18.50;79.30;;;;;;4999553;28;20473;-47
2022/09/12 08:38:54;;;;;;;11.70;9.90;;;18.40;78.80;;;;;;4994479;28;20499;-47
2022/09/12 08:41:29;;;;;;;14.80;10.00;;;18.40;78.60;;;;;;4998608;28;21762;-47
2022/09/12 08:44:33;;;;;;;13.57;9.40;;;18.40;79.10;;;;;;4999420;28;20527;-46
2022/09/12 08:47:15;;;;;;;13.70;9.93;;;18.60;78.90;;;;;;4999096;28;20535;-47
2022/09/12 08:50:01;;;;;;;16.70;11.27;;;18.60;77.90;;;;;;5000518;28;22565;-47
2022/09/12 08:52:57;;;;;;;12.87;9.77;;;18.60;78.50;;;;;;4979212;28;20504;-48
2022/09/12 08:55:26;;;;;;;10.20;9.03;;;18.80;78.30;;;;;;4983807;28;20464;-47
2022/09/12 08:57:53;;;;;;;14.77;10.10;;;18.90;78.00;;;;;;5002545;28;20512;-47
2022/09/12 09:00:20;;;;;;;14.20;10.17;;;18.90;77.10;;;;;;4998005;28;20523;-47
2022/09/12 09:03:16;;;;;;;10.20;9.10;;;18.80;77.30;;;;;;4998577;28;20958;-47
2022/09/12 09:06:05;;;;;;;14.17;9.10;;;19.00;77.30;;;;;;4988539;28;20468;-47
2022/09/12 09:09:01;;;;;;;13.17;10.27;;;19.00;77.40;;;;;;4998424;28;21222;-47
2022/09/12 09:11:53;;;;;;;14.13;9.90;;;19.00;76.20;;;;;;4998588;28;20539;-48
2022/09/12 09:14:50;;;;;;;12.70;9.87;;;19.00;76.30;;;;;;5004018;28;20618;-47
2022/09/12 09:17:24;;;;;;;14.93;10.20;;;19.00;76.60;;;;;;4985915;28;20526;-47
2022/09/12 09:20:10;;;;;;;13.37;9.73;;;19.10;76.70;;;;;;4998468;28;20472;-47
2022/09/12 09:22:48;;;;;;;14.57;9.63;;;19.20;76.50;;;;;;5006553;28;20464;-47
2022/09/12 09:26:01;;;;;;;13.00;10.00;;;19.30;76.60;;;;;;5008575;28;20956;-47
2022/09/12 09:28:43;;;;;;;11.53;8.83;;;19.40;76.60;;;;;;4999171;28;20476;-47
2022/09/12 09:31:14;;;;;;;13.30;8.97;;;19.50;76.30;;;;;;4982425;28;20527;-47
2022/09/12 09:33:42;;;;;;;12.47;9.57;;;19.60;75.60;;;;;;5004411;28;21032;-47
2022/09/12 09:36:46;;;;;;;12.80;10.30;;;19.50;74.60;;;;;;5006969;28;20490;-47
2022/09/12 09:39:33;;;;;;;14.27;10.97;;;19.50;75.00;;;;;;5004920;28;20526;-47
2022/09/12 09:42:24;;;;;;;10.77;8.90;;;19.70;75.10;;;;;;4995155;28;20472;-47
2022/09/12 09:44:53;;;;;;;12.97;9.20;;;19.70;74.90;;;;;;4984873;28;20487;-47
2022/09/12 09:47:20;;;;;;;12.20;9.00;;;19.90;74.70;;;;;;4997827;28;20452;-47
2022/09/12 09:49:47;;;;;;;12.70;9.00;;;19.80;74.30;;;;;;5006703;28;20922;-47
2022/09/12 09:52:16;;;;;;;10.70;9.10;;;19.90;74.30;;;;;;5007068;28;20531;-47
2022/09/12 09:54:52;;;;;;;12.77;9.37;;;19.90;73.70;;;;;;5003407;28;20546;-47
2022/09/12 09:57:33;;;;;;;10.80;8.53;;;19.90;73.70;;;;;;4991165;28;20514;-47
2022/09/12 10:00:25;;;;;;;13.50;8.37;;;20.10;73.70;;;;;;5001934;28;20881;-47
2022/09/12 10:03:06;;;;;;;10.17;8.50;;;20.10;73.00;;;;;;5003100;28;20476;-47
2022/09/12 10:05:51;;;;;;;9.50;8.40;;;20.20;73.30;;;;;;5006259;28;20511;-47
2022/09/12 10:08:28;;;;;;;12.67;8.40;;;20.20;73.10;;;;;;5003029;28;20999;-47
2022/09/12 10:11:00;;;;;;;10.93;8.90;;;20.30;72.20;;;;;;5004246;28;20468;-47
2022/09/12 10:13:36;;;;;;;10.23;8.60;;;20.40;72.20;;;;;;4977836;28;20579;-47
2022/09/12 10:16:26;;;;;;;14.20;9.57;;;20.50;72.00;;;;;;5002664;28;20464;-47
2022/09/12 10:18:58;;;;;;;10.80;8.47;;;20.60;71.10;;;;;;5003800;28;20484;-47
2022/09/12 10:21:59;;;;;;;8.03;7.10;;;20.70;70.70;;;;;;5001169;28;21814;-47
2022/09/12 10:24:32;;;;;;;12.23;6.87;;;20.90;71.00;;;;;;5003074;28;20498;-47
2022/09/12 10:27:13;;;;;;;9.93;8.20;;;21.00;71.10;;;;;;4998649;28;20494;-47
2022/09/12 10:29:53;;;;;;;9.40;7.80;;;21.20;69.90;;;;;;5000859;28;20452;-47
2022/09/12 10:32:39;;;;;;;9.77;7.90;;;21.40;69.80;;;;;;5001745;28;21034;-47
2022/09/12 10:35:18;;;;;;;9.83;7.77;;;21.60;68.80;;;;;;5007316;28;20910;-47
2022/09/12 10:37:57;;;;;;;8.87;7.30;;;21.90;68.00;;;;;;4987600;28;20467;-47
2022/09/12 10:40:27;;;;;;;15.30;8.07;;;22.00;67.60;;;;;;4983964;28;20564;-47
2022/09/12 10:42:57;;;;;;;9.33;8.10;;;22.00;67.10;;;;;;5000406;28;20992;-48
2022/09/12 10:45:28;;;;;;;10.37;7.60;;;22.00;66.30;;;;;;4996783;28;21600;-47
2022/09/12 10:47:57;;;;;;;8.30;7.50;;;22.00;66.60;;;;;;5000913;28;21047;-48
2022/09/12 10:50:37;;;;;;;11.27;7.60;;;22.00;66.00;;;;;;5001690;28;20492;-47
2022/09/12 10:53:13;;;;;;;9.00;8.10;;;22.10;65.40;;;;;;5004949;28;20499;-47
2022/09/12 10:55:56;;;;;;;9.80;8.17;;;22.30;63.70;;;;;;4981200;28;20464;-47
2022/09/12 10:58:28;;;;;;;10.47;7.80;;;22.50;63.20;;;;;;4988471;28;21154;-47
2022/09/12 11:01:18;;;;;;;8.17;6.20;;;22.40;64.00;;;;;;4983023;28;21044;-47
2022/09/12 11:04:03;;;;;;;8.83;6.70;;;22.50;64.00;;;;;;4966791;28;20488;-48
2022/09/12 11:06:55;;;;;;;6.87;6.17;;;22.40;64.10;;;;;;5002341;28;20503;-48
2022/09/12 11:09:52;;;;;;;8.40;6.50;;;22.30;63.00;;;;;;5002719;28;20471;-48
2022/09/12 11:12:34;;;;;;;6.87;6.07;;;22.20;64.30;;;;;;4977111;28;21005;-48
2022/09/12 11:15:10;;;;;;;8.97;6.30;;;22.00;64.10;;;;;;5000009;28;20500;-47
2022/09/12 11:18:12;;;;;;;6.83;5.90;;;22.00;64.10;;;;;;5005083;28;20495;-47
2022/09/12 11:21:14;;;;;;;7.87;6.40;;;22.10;64.10;;;;;;4982638;28;20813;-48
2022/09/12 11:23:56;;;;;;;8.07;5.60;;;22.00;64.60;;;;;;4943745;28;21042;-48
2022/09/12 11:26:46;;;;;;;6.97;5.80;;;21.90;61.90;;;;;;4999853;28;20491;-47
2022/09/12 11:29:26;;;;;;;5.80;5.30;;;21.70;61.70;;;;;;5000937;28;20875;-47
2022/09/12 11:32:17;;;;;;;7.57;5.57;;;21.70;62.80;;;;;;4989398;28;20503;-47
2022/09/12 11:35:24;;;;;;;5.77;5.10;;;21.70;62.90;;;;;;5003354;28;20627;-48
2022/09/12 11:38:09;;;;;;;6.40;5.80;;;21.70;63.70;;;;;;4983047;28;20973;-47
2022/09/12 11:40:39;;;;;;;6.00;5.40;;;21.70;63.30;;;;;;4984453;28;20514;-47
2022/09/12 11:43:34;;;;;;;6.20;5.60;;;21.60;63.00;;;;;;4981004;28;20526;-47
2022/09/12 11:46:16;;;;;;;7.33;6.63;;;21.60;63.80;;;;;;4997785;28;20491;-47
2022/09/12 11:49:13;;;;;;;8.30;5.33;;;21.60;63.30;;;;;;5004821;28;20463;-48
2022/09/12 11:51:58;;;;;;;5.00;4.50;;;21.50;63.40;;;;;;5002267;28;20996;-48
2022/09/12 11:54:47;;;;;;;5.53;5.00;;;21.50;62.10;;;;;;5001613;28;20468;-47
2022/09/12 11:57:27;;;;;;;6.00;4.80;;;21.60;62.80;;;;;;5006239;28;20464;-48
2022/09/12 12:00:04;;;;;;;6.00;5.23;;;21.60;62.80;;;;;;4985292;28;20543;-48
2022/09/12 12:02:42;;;;;;;5.27;4.77;;;21.60;61.60;;;;;;4986031;28;20964;-48
2022/09/12 12:05:19;;;;;;;5.90;5.30;;;21.60;61.90;;;;;;5002157;28;20502;-48
2022/09/12 12:07:58;;;;;;;5.00;4.50;;;21.60;62.40;;;;;;5002625;28;20467;-47
2022/09/12 12:10:50;;;;;;;6.20;4.90;;;21.60;62.40;;;;;;5002941;28;20502;-47
2022/09/12 12:13:24;;;;;;;5.60;4.90;;;21.60;62.50;;;;;;4988692;28;21015;-47
2022/09/12 12:15:58;;;;;;;6.30;5.30;;;21.70;62.50;;;;;;4969941;28;20530;-48
2022/09/12 12:18:30;;;;;;;5.13;4.50;;;21.80;61.70;;;;;;4993975;28;20797;-48
2022/09/12 12:21:35;;;;;;;5.40;4.80;;;21.80;61.70;;;;;;4998437;28;20464;-47
2022/09/12 12:24:07;;;;;;;5.30;4.80;;;21.80;60.30;;;;;;4999896;28;20490;-48
2022/09/12 12:26:59;;;;;;;5.60;5.03;;;21.80;61.00;;;;;;5000294;28;20510;-47
2022/09/12 12:29:35;;;;;;;5.87;5.00;;;21.80;60.60;;;;;;4999197;28;20514;-47
2022/09/12 12:32:08;;;;;;;6.17;5.00;;;21.80;61.40;;;;;;5002178;28;20462;-47
2022/09/12 12:34:43;;;;;;;6.73;5.77;;;21.80;61.70;;;;;;4980507;28;20524;-47
2022/09/12 12:37:24;;;;;;;5.93;5.33;;;21.80;62.30;;;;;;4996934;28;20455;-47
2022/09/12 12:40:03;;;;;;;5.40;4.87;;;21.80;63.40;;;;;;4999388;28;20474;-47
2022/09/12 12:42:33;;;;;;;6.43;4.80;;;21.70;61.70;;;;;;4986236;28;20836;-47
2022/09/12 12:45:06;;;;;;;5.20;4.77;;;21.70;62.10;;;;;;4997199;28;20491;-47
2022/09/12 12:47:48;;;;;;;5.27;4.63;;;21.70;60.90;;;;;;4996357;28;20539;-48
2022/09/12 12:50:15;;;;;;;6.13;5.33;;;21.80;61.40;;;;;;5000318;28;20501;-47
2022/09/12 12:52:53;;;;;;;5.73;5.13;;;21.80;61.00;;;;;;4978793;28;20492;-47
2022/09/12 12:55:34;;;;;;;4.50;4.10;;;21.90;61.20;;;;;;5001800;28;20491;-47
2022/09/12 12:58:02;;;;;;;5.00;4.20;;;21.90;61.80;;;;;;4999171;28;20859;-47
2022/09/12 13:00:38;;;;;;;6.30;4.00;;;21.90;62.40;;;;;;5001996;28;20463;-48
2022/09/12 13:03:05;;;;;;;5.40;4.87;;;21.80;59.30;;;;;;5000468;28;20463;-48
2022/09/12 13:05:39;;;;;;;5.70;4.30;;;21.80;60.80;;;;;;5001766;28;20554;-48
2022/09/12 13:08:27;;;;;;;4.27;3.63;;;21.90;60.20;;;;;;4983814;28;20534;-47
2022/09/12 13:11:10;;;;;;;5.67;4.50;;;21.90;61.20;;;;;;4999609;28;20545;-50
2022/09/12 13:13:56;;;;;;;4.20;3.87;;;21.90;60.80;;;;;;5005545;28;20490;-50
2022/09/12 13:16:51;;;;;;;4.37;3.97;;;21.90;61.10;;;;;;4982514;28;20464;-50